createdAt,value
2018-08-25T00:01:35.669Z,2.20
2018-08-25T00:04:04.237Z,1.90
2018-08-25T00:06:32.840Z,1.90
2018-08-25T00:09:01.434Z,1.93
2018-08-25T00:11:29.989Z,1.97
2018-08-25T00:13:58.576Z,1.83
2018-08-25T00:16:27.134Z,1.73
2018-08-25T00:18:55.657Z,2.00
2018-08-25T00:21:24.210Z,2.13
2018-08-25T00:23:52.776Z,1.90
2018-08-25T00:26:21.382Z,1.63
2018-08-25T00:28:49.947Z,1.90
2018-08-25T00:31:23.471Z,2.10
2018-08-25T00:33:53.266Z,1.87
2018-08-25T00:36:22.181Z,2.20
2018-08-25T00:38:50.759Z,1.93
2018-08-25T00:41:19.381Z,2.27
2018-08-25T00:43:48.006Z,2.50
2018-08-25T00:46:17.073Z,2.40
2018-08-25T00:48:45.737Z,2.33
2018-08-25T00:51:14.345Z,2.20
2018-08-25T00:53:42.862Z,2.07
2018-08-25T00:56:11.506Z,2.00
2018-08-25T00:58:40.049Z,2.03
2018-08-25T01:01:08.578Z,1.90
2018-08-25T01:03:37.257Z,2.00
2018-08-25T01:06:05.935Z,2.27
2018-08-25T01:08:34.570Z,2.00
2018-08-25T01:11:03.214Z,2.27
2018-08-25T01:13:31.844Z,1.63
2018-08-25T01:16:00.374Z,1.77
2018-08-25T01:18:28.976Z,1.97
2018-08-25T01:20:57.546Z,2.07
2018-08-25T01:23:26.159Z,1.80
2018-08-25T01:25:54.826Z,1.80
2018-08-25T01:28:23.452Z,1.70
2018-08-25T01:30:52.005Z,1.70
2018-08-25T01:33:21.429Z,2.20
2018-08-25T01:35:50.108Z,1.97
2018-08-25T01:38:18.828Z,1.90
2018-08-25T01:40:47.402Z,1.77
2018-08-25T01:43:15.945Z,2.27
2018-08-25T01:45:44.458Z,1.80
2018-08-25T01:48:12.980Z,1.70
2018-08-25T01:50:41.623Z,1.77
2018-08-25T01:53:10.121Z,1.83
2018-08-25T01:55:38.849Z,1.90
2018-08-25T01:58:08.241Z,1.70
2018-08-25T02:00:36.881Z,1.60
2018-08-25T02:03:05.545Z,1.63
2018-08-25T02:05:34.166Z,1.83
2018-08-25T02:08:04.534Z,1.70
2018-08-25T02:10:33.131Z,1.57
2018-08-25T02:13:01.664Z,1.23
2018-08-25T02:15:30.289Z,1.57
2018-08-25T02:17:58.912Z,1.70
2018-08-25T02:20:27.458Z,1.50
2018-08-25T02:22:56.091Z,1.53
2018-08-25T02:25:24.654Z,1.60
2018-08-25T02:27:53.210Z,1.70
2018-08-25T02:30:21.733Z,1.53
2018-08-25T02:32:50.282Z,1.60
2018-08-25T02:35:18.888Z,1.30
2018-08-25T02:37:47.449Z,1.40
2018-08-25T02:40:16.069Z,1.40
2018-08-25T02:42:44.648Z,1.37
2018-08-25T02:45:13.227Z,1.57
2018-08-25T02:47:41.809Z,1.60
2018-08-25T02:50:10.336Z,1.50
2018-08-25T02:52:38.953Z,1.60
2018-08-25T02:55:07.563Z,1.60
2018-08-25T02:57:36.092Z,1.40
2018-08-25T03:00:04.765Z,1.43
2018-08-25T03:02:33.384Z,1.33
2018-08-25T03:05:01.941Z,1.27
2018-08-25T03:07:30.596Z,1.07
2018-08-25T03:09:59.163Z,1.20
2018-08-25T03:12:27.769Z,1.50
2018-08-25T03:14:56.363Z,1.27
2018-08-25T03:17:24.944Z,1.40
2018-08-25T03:19:53.545Z,1.57
2018-08-25T03:22:22.196Z,1.80
2018-08-25T03:24:50.771Z,1.80
2018-08-25T03:27:19.284Z,1.97
2018-08-25T03:29:47.893Z,2.13
2018-08-25T03:32:16.437Z,2.20
2018-08-25T03:34:45.006Z,2.10
2018-08-25T03:37:13.587Z,2.10
2018-08-25T03:39:42.142Z,2.57
2018-08-25T03:42:10.726Z,2.20
2018-08-25T03:44:39.265Z,2.17
2018-08-25T03:47:07.838Z,2.50
2018-08-25T03:49:36.387Z,3.17
2018-08-25T03:52:05.273Z,3.10
2018-08-25T03:54:33.857Z,2.90
2018-08-25T03:57:02.479Z,3.53
2018-08-25T03:59:30.947Z,3.20
2018-08-25T04:01:59.333Z,3.40
2018-08-25T04:04:27.692Z,3.10
2018-08-25T04:06:56.098Z,3.27
2018-08-25T04:09:24.585Z,3.70
2018-08-25T04:11:52.961Z,2.37
2018-08-25T04:14:21.344Z,3.53
2018-08-25T04:16:49.734Z,3.67
2018-08-25T04:19:19.797Z,4.17
2018-08-25T04:21:48.762Z,4.00
2018-08-25T04:24:17.141Z,3.50
2018-08-25T04:26:45.554Z,4.60
2018-08-25T04:29:14.233Z,4.23
2018-08-25T04:31:42.612Z,4.23
2018-08-25T04:34:10.977Z,3.87
2018-08-25T04:36:39.438Z,3.63
2018-08-25T04:39:09.141Z,2.87
2018-08-25T04:41:37.569Z,2.73
2018-08-25T04:44:06.021Z,2.90
2018-08-25T04:46:34.464Z,3.17
2018-08-25T04:49:02.945Z,3.50
2018-08-25T04:51:31.318Z,3.60
2018-08-25T04:53:59.708Z,3.37
2018-08-25T04:56:28.105Z,2.80
2018-08-25T04:58:56.528Z,3.90
2018-08-25T05:01:24.961Z,3.57
2018-08-25T05:03:53.427Z,3.73
2018-08-25T05:06:21.851Z,3.87
2018-08-25T05:08:50.356Z,4.00
2018-08-25T05:11:18.706Z,2.87
2018-08-25T05:13:47.114Z,3.90
2018-08-25T05:16:15.593Z,3.80
2018-08-25T05:18:44.074Z,4.23
2018-08-25T05:21:12.438Z,3.67
2018-08-25T05:23:40.849Z,4.60
2018-08-25T05:26:09.259Z,5.27
2018-08-25T05:28:37.701Z,5.80
2018-08-25T05:31:06.230Z,4.40
2018-08-25T05:33:34.701Z,4.50
2018-08-25T05:36:03.288Z,5.80
2018-08-25T05:38:31.705Z,5.57
2018-08-25T05:41:00.162Z,4.87
2018-08-25T05:43:28.567Z,4.50
2018-08-25T05:45:56.941Z,4.10
2018-08-25T05:48:25.274Z,4.10
2018-08-25T05:50:53.733Z,3.60
2018-08-25T05:53:22.286Z,3.60
2018-08-25T05:55:50.717Z,2.87
2018-08-25T05:58:19.119Z,3.00
2018-08-25T06:00:49.343Z,3.13
2018-08-25T06:03:17.725Z,2.90
2018-08-25T06:05:46.145Z,2.90
2018-08-25T06:08:14.777Z,2.67
2018-08-25T06:10:43.175Z,2.40
2018-08-25T06:13:12.803Z,2.40
2018-08-25T06:15:41.291Z,2.93
2018-08-25T06:18:09.877Z,2.70
2018-08-25T06:20:39.453Z,3.10
2018-08-25T06:23:09.086Z,2.73
2018-08-25T06:25:37.448Z,2.53
2018-08-25T06:28:05.850Z,2.30
2018-08-25T06:30:34.221Z,2.40
2018-08-25T06:33:03.379Z,2.00
2018-08-25T06:35:31.731Z,1.90
2018-08-25T06:38:00.230Z,1.83
2018-08-25T06:40:28.621Z,1.83
2018-08-25T06:42:57.017Z,1.77
2018-08-25T06:45:25.392Z,1.83
2018-08-25T06:47:53.820Z,1.50
2018-08-25T06:50:22.191Z,1.33
2018-08-25T06:52:50.529Z,1.23
2018-08-25T06:55:18.946Z,1.13
2018-08-25T06:57:47.389Z,1.13
2018-08-25T07:00:15.805Z,1.13
2018-08-25T07:02:44.186Z,1.30
2018-08-25T07:05:12.596Z,1.20
2018-08-25T07:07:40.971Z,1.10
2018-08-25T07:10:09.398Z,1.10
2018-08-25T07:12:37.805Z,1.10
2018-08-25T07:15:06.584Z,1.30
2018-08-25T07:17:34.972Z,1.10
2018-08-25T07:20:03.381Z,1.07
2018-08-25T07:22:31.783Z,1.27
2018-08-25T07:25:00.161Z,1.03
2018-08-25T07:27:28.626Z,1.40
2018-08-25T07:29:57.048Z,1.23
2018-08-25T07:32:25.497Z,1.17
2018-08-25T07:34:53.915Z,1.27
2018-08-25T07:37:22.336Z,1.40
2018-08-25T07:39:50.745Z,1.40
2018-08-25T07:42:19.154Z,1.27
2018-08-25T07:44:47.529Z,1.20
2018-08-25T07:47:15.974Z,1.17
2018-08-25T07:49:44.398Z,1.10
2018-08-25T07:52:12.841Z,1.30
2018-08-25T07:54:41.238Z,0.93
2018-08-25T07:57:09.626Z,1.00
2018-08-25T07:59:38.005Z,0.80
2018-08-25T08:02:06.741Z,1.10
2018-08-25T08:04:35.172Z,1.10
2018-08-25T08:07:03.550Z,1.10
2018-08-25T08:09:32.019Z,1.00
2018-08-25T08:12:00.661Z,1.00
2018-08-25T08:14:28.964Z,0.90
2018-08-25T08:16:57.436Z,1.00
2018-08-25T08:19:25.849Z,1.10
2018-08-25T08:21:54.800Z,0.90
2018-08-25T08:24:23.258Z,1.10
2018-08-25T08:26:51.631Z,1.07
2018-08-25T08:29:20.017Z,1.00
2018-08-25T08:31:48.493Z,1.17
2018-08-25T08:34:16.963Z,1.00
2018-08-25T08:36:45.539Z,1.20
2018-08-25T08:39:14.045Z,1.07
2018-08-25T08:41:42.417Z,1.00
2018-08-25T08:44:10.945Z,1.10
2018-08-25T08:46:40.005Z,1.20
2018-08-25T08:49:08.858Z,1.17
2018-08-25T08:51:38.124Z,1.20
2018-08-25T08:54:06.530Z,1.30
2018-08-25T08:56:35.093Z,1.20
2018-08-25T08:59:03.575Z,1.30
2018-08-25T09:01:32.662Z,1.17
2018-08-25T09:04:01.144Z,1.27
2018-08-25T09:06:29.665Z,1.27
2018-08-25T09:08:58.046Z,1.40
2018-08-25T09:11:26.448Z,1.47
2018-08-25T09:13:55.819Z,1.10
2018-08-25T09:16:24.496Z,1.57
2018-08-25T09:18:52.926Z,1.47
2018-08-25T09:21:21.346Z,1.43
2018-08-25T09:23:49.839Z,1.67
2018-08-25T09:26:18.365Z,1.90
2018-08-25T09:28:46.855Z,2.70
2018-08-25T09:31:15.375Z,2.50
2018-08-25T09:33:43.773Z,2.33
2018-08-25T09:36:12.225Z,1.50
2018-08-25T09:38:40.922Z,2.57
2018-08-25T09:41:09.362Z,2.33
2018-08-25T09:43:37.745Z,2.17
2018-08-25T09:46:06.282Z,2.40
2018-08-25T09:48:34.855Z,1.77
2018-08-25T09:51:03.729Z,2.60
2018-08-25T09:53:32.183Z,2.17
2018-08-25T09:56:00.595Z,2.57
2018-08-25T09:58:28.994Z,2.60
2018-08-25T10:01:02.909Z,2.10
2018-08-25T10:03:32.556Z,2.27
2018-08-25T10:06:01.080Z,2.47
2018-08-25T10:08:29.565Z,2.57
2018-08-25T10:10:58.121Z,1.60
2018-08-25T10:13:26.687Z,2.03
2018-08-25T10:15:55.280Z,2.67
2018-08-25T10:18:23.714Z,2.30
2018-08-25T10:20:52.149Z,2.30
2018-08-25T10:23:20.671Z,2.10
2018-08-25T10:25:49.153Z,1.57
2018-08-25T10:28:17.550Z,1.93
2018-08-25T10:30:45.942Z,1.57
2018-08-25T10:33:14.357Z,1.30
2018-08-25T10:35:42.803Z,1.60
2018-08-25T10:38:11.186Z,1.33
2018-08-25T10:40:39.591Z,1.53
2018-08-25T10:43:07.978Z,3.90
2018-08-25T10:45:36.469Z,1.40
2018-08-25T10:48:05.232Z,1.13
2018-08-25T10:50:33.975Z,1.60
2018-08-25T10:53:02.334Z,1.30
2018-08-25T10:55:31.249Z,1.50
2018-08-25T10:57:59.678Z,1.50
2018-08-25T11:00:28.213Z,1.53
2018-08-25T11:02:57.105Z,1.20
2018-08-25T11:05:25.543Z,1.30
2018-08-25T11:07:53.941Z,1.70
2018-08-25T11:10:22.354Z,1.10
2018-08-25T11:12:50.867Z,1.23
2018-08-25T11:15:19.291Z,1.30
2018-08-25T11:17:47.727Z,1.30
2018-08-25T11:23:03.462Z,1.33
2018-08-25T11:25:50.877Z,1.57
2018-08-25T11:28:24.614Z,1.50
2018-08-25T11:30:53.466Z,1.57
2018-08-25T11:33:27.935Z,1.50
2018-08-25T11:35:56.541Z,1.50
2018-08-25T11:38:25.049Z,1.30
2018-08-25T11:43:56.004Z,1.87
2018-08-25T11:46:24.377Z,2.00
2018-08-25T11:48:52.896Z,1.90
2018-08-25T11:51:21.313Z,1.70
2018-08-25T11:53:54.710Z,1.50
2018-08-25T11:56:28.725Z,1.60
2018-08-25T11:58:57.968Z,1.47
2018-08-25T12:01:26.558Z,1.40
2018-08-25T12:03:54.962Z,1.30
2018-08-25T12:06:23.462Z,1.60
2018-08-25T12:08:51.898Z,1.50
2018-08-25T12:11:29.845Z,1.87
2018-08-25T12:13:58.593Z,1.57
2018-08-25T12:16:27.063Z,1.50
2018-08-25T12:18:56.156Z,1.40
2018-08-25T12:21:30.319Z,1.53
2018-08-25T12:23:58.840Z,1.37
2018-08-25T12:26:27.398Z,1.30
2018-08-25T12:29:04.361Z,1.50
2018-08-25T12:31:33.022Z,1.30
2018-08-25T12:34:01.401Z,1.40
2018-08-25T12:36:30.191Z,1.40
2018-08-25T12:38:58.849Z,1.30
2018-08-25T12:41:27.311Z,1.30
2018-08-25T12:43:55.782Z,1.00
2018-08-25T12:46:24.191Z,0.93
2018-08-25T12:48:52.816Z,1.40
2018-08-25T12:51:21.250Z,1.20
2018-08-25T12:53:49.819Z,1.10
2018-08-25T12:56:18.335Z,1.30
2018-08-25T12:58:46.717Z,1.20
2018-08-25T13:01:15.251Z,1.00
2018-08-25T13:03:43.826Z,0.90
2018-08-25T13:06:12.867Z,1.17
2018-08-25T13:08:41.872Z,0.80
2018-08-25T13:11:10.679Z,1.37
2018-08-25T13:13:39.077Z,1.30
2018-08-25T13:16:07.644Z,1.17
2018-08-25T13:18:36.291Z,1.23
2018-08-25T13:21:06.160Z,1.50
2018-08-25T13:23:34.804Z,1.40
2018-08-25T13:26:04.548Z,2.70
2018-08-25T13:28:33.171Z,1.57
2018-08-25T13:31:01.675Z,1.67
2018-08-25T13:33:30.175Z,1.17
2018-08-25T13:35:58.591Z,1.37
2018-08-25T13:38:27.030Z,1.40
2018-08-25T13:40:55.765Z,1.20
2018-08-25T13:43:24.196Z,1.03
2018-08-25T13:45:52.605Z,1.03
2018-08-25T13:48:20.997Z,1.10
2018-08-25T13:50:49.415Z,0.80
2018-08-25T13:53:17.897Z,1.10
2018-08-25T13:55:46.616Z,0.70
2018-08-25T13:58:15.353Z,0.67
2018-08-25T14:00:43.856Z,0.73
2018-08-25T14:03:12.502Z,0.90
2018-08-25T14:05:40.897Z,0.83
2018-08-25T14:08:09.809Z,0.87
2018-08-25T14:10:38.509Z,0.90
2018-08-25T14:13:07.514Z,0.87
2018-08-25T14:15:36.242Z,1.00
2018-08-25T14:18:08.114Z,1.00
2018-08-25T14:20:36.897Z,0.97
2018-08-25T14:23:05.296Z,1.10
2018-08-25T14:25:33.676Z,0.90
2018-08-25T14:28:02.108Z,0.70
2018-08-25T14:30:30.596Z,0.70
2018-08-25T14:32:59.360Z,0.97
2018-08-25T14:35:27.818Z,1.20
2018-08-25T14:37:56.257Z,0.97
2018-08-25T14:40:24.717Z,0.83
2018-08-25T14:42:54.077Z,1.10
2018-08-25T14:45:22.621Z,0.80
2018-08-25T14:47:51.305Z,0.93
2018-08-25T14:50:19.767Z,1.10
2018-08-25T14:52:48.078Z,0.70
2018-08-25T14:55:16.802Z,0.93
2018-08-25T14:57:45.497Z,1.10
2018-08-25T15:00:14.308Z,1.30
2018-08-25T15:02:43.430Z,1.10
2018-08-25T15:05:11.942Z,1.13
2018-08-25T15:07:41.260Z,1.30
2018-08-25T15:10:11.162Z,1.13
2018-08-25T15:12:39.573Z,1.23
2018-08-25T15:15:08.025Z,1.17
2018-08-25T15:17:36.449Z,1.10
2018-08-25T15:20:05.478Z,1.30
2018-08-25T15:22:34.722Z,1.10
2018-08-25T15:25:03.105Z,1.40
2018-08-25T15:27:31.891Z,1.23
2018-08-25T15:30:00.281Z,1.33
2018-08-25T15:32:28.741Z,1.03
2018-08-25T15:34:57.120Z,1.00
2018-08-25T15:37:25.484Z,1.00
2018-08-25T15:39:54.197Z,1.40
2018-08-25T15:42:22.577Z,1.00
2018-08-25T15:44:51.264Z,1.20
2018-08-25T15:47:19.952Z,1.30
2018-08-25T15:49:48.669Z,1.20
2018-08-25T15:52:17.554Z,0.90
2018-08-25T15:54:45.945Z,0.90
2018-08-25T15:57:14.391Z,1.50
2018-08-25T15:59:43.247Z,1.20
2018-08-25T16:02:12.041Z,1.07
2018-08-25T16:04:41.132Z,1.10
2018-08-25T16:07:09.636Z,0.80
2018-08-25T16:09:39.294Z,0.90
2018-08-25T16:12:07.807Z,1.17
2018-08-25T16:14:36.464Z,1.37
2018-08-25T16:17:04.844Z,1.23
2018-08-25T16:19:33.854Z,1.20
2018-08-25T16:22:03.541Z,1.37
2018-08-25T16:24:31.913Z,1.33
2018-08-25T16:27:00.764Z,1.10
2018-08-25T16:29:29.179Z,1.17
2018-08-25T16:31:57.580Z,1.13
2018-08-25T16:34:25.972Z,1.30
2018-08-25T16:36:54.726Z,1.20
2018-08-25T16:39:23.279Z,1.20
2018-08-25T16:41:51.761Z,1.40
2018-08-25T16:44:20.268Z,1.30
2018-08-25T16:46:48.673Z,1.17
2018-08-25T16:49:17.544Z,1.20
2018-08-25T16:51:45.902Z,1.27
2018-08-25T16:54:14.344Z,1.50
2018-08-25T16:56:42.861Z,1.20
2018-08-25T16:59:12.473Z,1.20
2018-08-25T17:01:41.239Z,1.60
2018-08-25T17:04:09.653Z,1.30
2018-08-25T17:06:38.148Z,1.13
2018-08-25T17:09:08.345Z,1.17
2018-08-25T17:11:37.062Z,1.10
2018-08-25T17:14:05.476Z,1.00
2018-08-25T17:16:35.357Z,1.10
2018-08-25T17:19:03.773Z,1.20
2018-08-25T17:21:32.530Z,1.40
2018-08-25T17:24:01.008Z,1.10
2018-08-25T17:26:29.400Z,0.90
2018-08-25T17:28:58.444Z,1.20
2018-08-25T17:31:26.834Z,1.47
2018-08-25T17:33:55.349Z,1.20
2018-08-25T17:36:23.730Z,1.00
2018-08-25T17:38:52.595Z,1.43
2018-08-25T17:41:21.070Z,1.70
2018-08-25T17:43:49.453Z,1.80
2018-08-25T17:46:18.002Z,1.40
2018-08-25T17:48:47.391Z,1.40
2018-08-25T17:51:16.194Z,1.40
2018-08-25T17:53:44.593Z,1.67
2018-08-25T17:56:13.397Z,2.10
2018-08-25T17:58:41.811Z,1.60
2018-08-25T18:01:10.724Z,1.70
2018-08-25T18:03:40.518Z,1.40
2018-08-25T18:06:08.893Z,1.50
2018-08-25T18:08:37.268Z,1.47
2018-08-25T18:11:05.959Z,1.60
2018-08-25T18:13:35.996Z,1.63
2018-08-25T18:16:04.690Z,1.60
2018-08-25T18:18:33.415Z,1.43
2018-08-25T18:21:03.316Z,1.47
2018-08-25T18:23:32.137Z,1.40
2018-08-25T18:26:00.898Z,1.47
2018-08-25T18:28:29.605Z,1.47
2018-08-25T18:30:58.310Z,1.50
2018-08-25T18:33:26.769Z,1.47
2018-08-25T18:35:55.519Z,1.70
2018-08-25T18:38:24.033Z,1.50
2018-08-25T18:40:52.681Z,1.70
2018-08-25T18:43:21.575Z,1.63
2018-08-25T18:45:50.887Z,2.33
2018-08-25T18:48:19.925Z,2.87
2018-08-25T18:50:48.661Z,2.60
2018-08-25T18:53:18.496Z,2.80
2018-08-25T18:55:47.368Z,7.30
2018-08-25T18:58:16.405Z,6.27
2018-08-25T19:00:44.873Z,4.60
2018-08-25T19:03:13.619Z,4.70
2018-08-25T19:05:42.096Z,5.03
2018-08-25T19:08:11.029Z,4.77
2018-08-25T19:10:40.069Z,5.10
2018-08-25T19:13:08.928Z,4.43
2018-08-25T19:15:37.696Z,2.90
2018-08-25T19:18:06.508Z,2.20
2018-08-25T19:20:36.284Z,1.70
2018-08-25T19:23:05.947Z,1.60
2018-08-25T19:25:34.884Z,1.70
2018-08-25T19:28:03.847Z,1.50
2018-08-25T19:30:32.560Z,2.10
2018-08-25T19:33:01.577Z,2.40
2018-08-25T19:35:30.691Z,3.20
2018-08-25T19:38:00.269Z,2.43
2018-08-25T19:40:29.652Z,1.57
2018-08-25T19:42:59.491Z,1.73
2018-08-25T19:45:28.486Z,1.60
2018-08-25T19:47:58.015Z,1.80
2018-08-25T19:50:26.713Z,1.80
2018-08-25T19:52:55.978Z,1.63
2018-08-25T19:55:24.754Z,2.10
2018-08-25T19:57:54.713Z,2.23
2018-08-25T20:00:23.920Z,2.30
2018-08-25T20:02:52.680Z,2.40
2018-08-25T20:05:21.414Z,2.30
2018-08-25T20:07:50.041Z,2.10
2018-08-25T20:10:18.738Z,2.00
2018-08-25T20:12:47.203Z,1.97
2018-08-25T20:15:15.962Z,2.10
2018-08-25T20:17:44.438Z,2.00
2018-08-25T20:20:12.941Z,2.47
2018-08-25T20:22:41.593Z,2.67
2018-08-25T20:25:10.253Z,2.20
2018-08-25T20:27:39.109Z,2.97
2018-08-25T20:30:08.515Z,2.70
2018-08-25T20:32:36.996Z,3.40
2018-08-25T20:35:05.517Z,3.13
2018-08-25T20:37:34.442Z,2.90
2018-08-25T20:40:03.400Z,3.10
2018-08-25T20:42:33.198Z,3.67
2018-08-25T20:45:02.059Z,2.80
2018-08-25T20:47:30.591Z,2.63
2018-08-25T20:49:59.009Z,2.60
2018-08-25T20:52:28.796Z,3.10
2018-08-25T20:54:58.491Z,3.10
2018-08-25T20:57:27.270Z,2.80
2018-08-25T20:59:55.717Z,3.10
2018-08-25T21:02:24.414Z,3.27
2018-08-25T21:04:52.870Z,2.80
2018-08-25T21:07:21.352Z,2.50
2018-08-25T21:09:49.807Z,2.63
2018-08-25T21:12:18.261Z,2.50
2018-08-25T21:14:47.840Z,2.50
2018-08-25T21:17:16.760Z,2.50
2018-08-25T21:19:45.202Z,2.30
2018-08-25T21:22:13.757Z,2.10
2018-08-25T21:24:42.143Z,2.23
2018-08-25T21:27:11.339Z,3.13
2018-08-25T21:29:39.700Z,2.57
2018-08-25T21:32:08.031Z,2.20
2018-08-25T21:34:36.478Z,2.30
2018-08-25T21:37:04.867Z,2.10
2018-08-25T21:39:33.273Z,2.07
2018-08-25T21:42:02.446Z,2.33
2018-08-25T21:44:30.820Z,2.50
2018-08-25T21:46:59.209Z,2.20
2018-08-25T21:49:27.552Z,2.60
2018-08-25T21:51:55.958Z,2.40
2018-08-25T21:54:24.550Z,2.17
2018-08-25T21:56:52.954Z,2.40
2018-08-25T21:59:22.024Z,2.40
2018-08-25T22:01:55.760Z,2.70
2018-08-25T22:04:24.138Z,2.70
2018-08-25T22:06:52.485Z,2.70
2018-08-25T22:09:20.919Z,2.73
2018-08-25T22:11:49.276Z,2.97
2018-08-25T22:14:17.631Z,2.90
2018-08-25T22:16:46.768Z,3.00
2018-08-25T22:19:15.226Z,3.60
2018-08-25T22:21:43.718Z,3.40
2018-08-25T22:24:13.428Z,3.10
2018-08-25T22:26:42.117Z,3.00
2018-08-25T22:29:10.498Z,3.97
2018-08-25T22:31:38.921Z,3.90
2018-08-25T22:34:07.337Z,3.40
2018-08-25T22:36:35.906Z,3.20
2018-08-25T22:39:06.918Z,3.40
2018-08-25T22:41:36.055Z,3.30
2018-08-25T22:44:04.457Z,3.07
2018-08-25T22:46:32.939Z,3.13
2018-08-25T22:49:01.311Z,3.20
2018-08-25T22:51:29.808Z,3.20
2018-08-25T22:53:58.121Z,3.30
2018-08-25T22:56:26.681Z,5.33
2018-08-25T22:58:55.145Z,6.77
2018-08-25T23:01:23.592Z,4.53
2018-08-25T23:03:51.962Z,4.10
2018-08-25T23:06:20.379Z,3.60
2018-08-25T23:08:48.800Z,3.10
2018-08-25T23:11:17.229Z,3.13
2018-08-25T23:13:45.633Z,3.13
2018-08-25T23:16:14.041Z,2.73
2018-08-25T23:18:42.522Z,2.80
2018-08-25T23:21:10.933Z,2.90
2018-08-25T23:23:39.313Z,3.20
2018-08-25T23:26:08.357Z,3.00
2018-08-25T23:28:36.753Z,3.20
2018-08-25T23:31:05.202Z,3.10
2018-08-25T23:33:33.569Z,3.03
2018-08-25T23:36:01.977Z,3.07
2018-08-25T23:38:30.338Z,2.73
2018-08-25T23:40:58.797Z,3.10
2018-08-25T23:43:27.158Z,3.20
2018-08-25T23:45:55.539Z,2.83
2018-08-25T23:48:23.939Z,2.93
2018-08-25T23:50:52.300Z,3.00
2018-08-25T23:53:20.669Z,2.60
2018-08-25T23:55:49.153Z,3.50
2018-08-25T23:58:17.623Z,3.03
